This is the latest recevied weather packets stored in our database for station/object SR9SMR. If no packets are shown the sender has not sent any weather packets the latest 10 day(s).
| Time | Temp. | Humidity | Pressure | Rain* | Wind** | Luminosity | Snow |
|---|---|---|---|---|---|---|---|
| 1777810881 | 16.67° C | 100% | 904 hPa | - | - | - | - |
| 1777810686 | 17.22° C | 100% | 904.4 hPa | - | - | - | - |
| 1777810377 | 17.78° C | 100% | 904.3 hPa | - | - | - | - |
| 1777810067 | 17.22° C | 100% | 904.8 hPa | - | - | - | - |
| 1777809862 | 16.11° C | 100% | 904.1 hPa | - | - | - | - |
| 1777809533 | 16.67° C | 100% | 904.2 hPa | - | - | - | - |
| 1777809223 | 16.67° C | 100% | 904.5 hPa | - | - | - | - |
| 1777809030 | 16.11° C | 100% | 904.6 hPa | - | - | - | - |
| 1777808719 | 15.56° C | 100% | 904.4 hPa | - | - | - | - |
| 1777808410 | 15.56° C | 100% | 904.3 hPa | - | - | - | - |
| 1777808317 | 16.11° C | 100% | 904.9 hPa | - | - | - | - |
| 1777808013 | 16.11° C | 100% | 904.6 hPa | - | - | - | - |
| 1777807772 | 15.56° C | 100% | 904.4 hPa | - | - | - | - |
| 1777807676 | 16.11° C | 100% | 904.3 hPa | - | - | - | - |
| 1777807373 | 16.11° C | 100% | 904.6 hPa | - | - | - | - |
| 1777807107 | 16.11° C | 100% | 904.5 hPa | - | - | - | - |
| 1777807011 | 16.11° C | 100% | 904.3 hPa | - | - | - | - |
| 1777806708 | 16.67° C | 100% | 905.1 hPa | - | - | - | - |
| 1777806575 | 15.56° C | 100% | 904.8 hPa | - | - | - | - |
| 1777806212 | 15.56° C | 100% | 904.3 hPa | - | - | - | - |
| 1777806116 | 16.11° C | 100% | 905 hPa | - | - | - | - |
| 1777805814 | 15° C | 100% | 904.6 hPa | - | - | - | - |
| 1777805720 | 15° C | 100% | 904.8 hPa | - | - | - | - |
| 1777805417 | 15° C | 100% | 904.4 hPa | - | - | - | - |
| 1777805193 | 15.56° C | 100% | 905.1 hPa | - | - | - | - |
* Rain since midnight (hover to see other rain measurements)
** Current wind speed in m/s (hover to see current wind gust speed)